Nearby METAR Reports

 

EDNY - Friedrichshafen, Germany
Distance from station: O 31km
aktuell: 27.08.2015 22:50

 Wind von N
Wind: N 2 km/h
Temperatur: 18°C
Taupunkt: 14°C
Luftfeuchte: 78%
Luftdruck: 1014 hPa
Visibility: 10 km
2015/08/27 20:50 EDNY 272050Z AUTO 01001KT 9999 18/14 Q1014
LSZR - Rheineck/Altenrh, Switzerland
Distance from station: SO 42km
aktuell: 27.08.2015 22:50
klar
klar
 Wind von varies
Wind: varies 6 km/h
Temperatur: 19°C
Taupunkt: 14°C
Luftfeuchte: 73%
Luftdruck: 1014 hPa
Zusammenfassung: klar
Visibility: greater than 10 km
2015/08/27 20:50 LSZR 272050Z AUTO VRB03KT CAVOK 19/14 Q1014
LSZH - Zurich-Kloten (a, Switzerland
Distance from station: WSW 49km
aktuell: 27.08.2015 22:50
klar
klar
 Wind von varies
Wind: varies 2 km/h
Temperatur: 20°C
Taupunkt: 16°C
Luftfeuchte: 78%
Luftdruck: 1014 hPa
Zusammenfassung: klar
Visibility: greater than 10 km
2015/08/27 20:50 LSZH 272050Z VRB01KT CAVOK 20/16 Q1014 NOSIG
 
EDTD - Donaueschingen, Germany
Distance from station: NW 53km
aktuell: 30.04.2014 18:20
NOT Current
sehr leichter Niederschlag, geschlossene Wolkendecke
sehr leichter Niederschlag, geschlossene Wolkendecke
 Wind von SSW
Wind: SSW 9 km/h
Temperatur: 10°C
gefühlte Temperatur: 9°C
Taupunkt: 10°C
Luftfeuchte: 100%
Luftdruck: 1011 hPa
Zusammenfassung: sehr leichter Niederschlag
Clouds: geschlossene Wolkendecke
Visibility: 9 km
Cloud details: stark bewölkt 213 m
geschlossene Wolkendecke 335 m
2014/04/30 16:20 EDTD 301620Z 20005KT 9000 -RA BKN007 OVC011 10/10 Q1011 LAST ?
ETGZ - Messstetten, Germany
Distance from station: N 54km
aktuell: 30.09.2013 14:20
NOT Current
geschlossene Wolkendecke
geschlossene Wolkendecke
 Wind von varies
Wind: varies 4 km/h
Temperatur: 8°C
Taupunkt: 7°C
Luftfeuchte: 93%
Luftdruck: 1007 hPa
Clouds: geschlossene Wolkendecke
Visibility: 10 km
Cloud details: geschlossene Wolkendecke 213 m
2013/09/30 12:20 ETGZ 301220Z VRB02KT 9999 OVC007 08/07 Q1007 GRN
LOIH - Hohenems-Dornbir, Austria
Distance from station: SO 57km
aktuell: 27.08.2015 14:00
NOT Current
teilweise bewölkt
teilweise bewölkt
 Wind von calm
Wind: Windstill
Temperatur: 28°C
Heat Index: 28°C
Taupunkt: 17°C
Luftfeuchte: 51%
Luftdruck: 1014 hPa
Clouds: teilweise bewölkt
Cloud details: teilweise bewölkt 9144 m
2015/08/27 12:00 LOIH 271200Z 00000KT 35KM SCT300CI 28/17 Q1014 RMK SCT
 
ETHL - Laupheim (ger-Ar, Germany
Distance from station: NO 84km
aktuell: 27.08.2015 22:20
stark bewölkt
stark bewölkt
 Wind von S
Wind: S 9 km/h
Temperatur: 22°C
Taupunkt: 10°C
Luftfeuchte: 47%
Luftdruck: 1014 hPa
Clouds: stark bewölkt
Visibility: 10 km
Cloud details: Few Clouds 4267 m
stark bewölkt 9144 m
2015/08/27 20:20 ETHL 272020Z 19005KT 9999 FEW140 BKN300 22/10 Q1014 BLU+
EDJA - Memmingen Allgau, Germany
Distance from station: ONO 90km
aktuell: 27.08.2015 21:50
NOT Current
klar
klar
 Wind von SSO
Wind: SSO 9 km/h
Temperatur: 18°C
Taupunkt: 13°C
Luftfeuchte: 73%
Luftdruck: 1015 hPa
Zusammenfassung: klar
Visibility: greater than 10 km
2015/08/27 19:50 EDJA 271950Z 15005KT CAVOK 18/13 Q1015
LSME - Emmen, Switzerland
Distance from station: SW 90km
aktuell: 27.08.2015 22:50
klar
klar
 Wind von SW
Wind: SW 6 km/h
Temperatur: 20°C
Taupunkt: 17°C
Luftfeuchte: 83%
Luftdruck: 1015 hPa
Clouds: klar
Visibility: 16 miles
2015/08/27 20:50 LSME 272050Z AUTO 22003KT 200V280 9999NDV NCD 20/17 Q1015 RMK BLU
 
LSZC - Buochs, Switzerland
Distance from station: SSW 98km
aktuell: 27.08.2015 22:50
klar
klar
 Wind von WSW
Wind: WSW 7 km/h
Temperatur: 21°C
Taupunkt: 14°C
Luftfeuchte: 64%
Luftdruck: 1015 hPa
Zusammenfassung: klar
Visibility: greater than 10 km
2015/08/27 20:50 LSZC 272050Z AUTO 25004KT 160V310 CAVOK 21/14 Q1015